createdAt,value
2023-10-09T00:01:19.408Z,100554.91
2023-10-09T00:06:39.359Z,100560.13
2023-10-09T00:11:43.789Z,100539.88
2023-10-09T00:16:51.045Z,100554.28
2023-10-09T00:21:57.731Z,100549.84
2023-10-09T00:27:14.657Z,100567.91
2023-10-09T00:32:20.577Z,100547.28
2023-10-09T00:37:26.709Z,100555.59
2023-10-09T00:42:36.874Z,100551.13
2023-10-09T00:47:42.746Z,100556.66
2023-10-09T00:52:55.999Z,100548.75
2023-10-09T00:58:01.761Z,100553.91
2023-10-09T01:03:24.615Z,100543.94
2023-10-09T01:08:45.380Z,100538.19
2023-10-09T01:13:51.909Z,100545.56
2023-10-09T01:19:00.118Z,100553.41
2023-10-09T01:24:04.938Z,100508.19
2023-10-09T01:29:16.881Z,100542.69
2023-10-09T01:34:26.099Z,100542.69
2023-10-09T01:39:32.294Z,100553.28
2023-10-09T01:44:45.248Z,100553.38
2023-10-09T01:56:16.902Z,100555.13
2023-10-09T02:01:22.991Z,100558.34
2023-10-09T02:06:28.136Z,100553.56
2023-10-09T02:11:38.432Z,100552.94
2023-10-09T02:16:44.138Z,100547.66
2023-10-09T02:21:48.810Z,100555.75
2023-10-09T02:26:53.023Z,100558.91
2023-10-09T02:32:03.166Z,100560.63
2023-10-09T02:37:14.774Z,100548.09
2023-10-09T02:42:25.315Z,100561.19
2023-10-09T02:47:39.544Z,100532.91
2023-10-09T02:52:43.481Z,100565.09
2023-10-09T02:57:53.555Z,100568.09
2023-10-09T03:03:00.238Z,100554.63
2023-10-09T03:08:04.600Z,100544.84
2023-10-09T03:13:08.501Z,100542.28
2023-10-09T03:18:15.946Z,100540.28
2023-10-09T03:23:19.999Z,100508.72
2023-10-09T03:28:24.230Z,100545.34
2023-10-09T03:33:28.646Z,100555.44
2023-10-09T03:38:36.913Z,100546.56
2023-10-09T03:43:42.873Z,100544.50
2023-10-09T03:48:48.622Z,100501.16
2023-10-09T03:53:56.922Z,100544.88
2023-10-09T03:59:02.236Z,100537.72
2023-10-09T04:04:12.892Z,100538.84
2023-10-09T04:09:22.864Z,100548.84
2023-10-09T04:14:35.357Z,100530.22
2023-10-09T04:19:50.073Z,100542.91
2023-10-09T04:24:54.556Z,100533.44
2023-10-09T04:29:58.732Z,100542.03
2023-10-09T04:35:24.325Z,100555.16
2023-10-09T04:40:50.157Z,100559.19
2023-10-09T04:46:12.465Z,100521.97
2023-10-09T04:51:23.603Z,100517.31
2023-10-09T04:56:33.562Z,100561.06
2023-10-09T05:01:47.179Z,100557.81
2023-10-09T05:06:57.363Z,100548.91
2023-10-09T05:12:11.878Z,100545.59
2023-10-09T05:17:18.852Z,100549.88
2023-10-09T05:22:38.344Z,100550.22
2023-10-09T05:27:52.477Z,100548.88
2023-10-09T05:33:00.778Z,100538.94
2023-10-09T05:38:06.867Z,100542.28
2023-10-09T05:43:31.509Z,100534.81
2023-10-09T05:48:55.601Z,100549.06
2023-10-09T05:54:18.421Z,100534.50
2023-10-09T05:59:51.668Z,100541.78
2023-10-09T06:04:59.706Z,100542.31
2023-10-09T06:10:19.185Z,100538.03
2023-10-09T06:15:53.250Z,100527.59
2023-10-09T06:21:08.779Z,100528.72
2023-10-09T06:26:25.931Z,100522.94
2023-10-09T06:31:50.050Z,100520.78
2023-10-09T06:36:57.071Z,100515.63
2023-10-09T06:42:11.717Z,100521.41
2023-10-09T06:47:20.678Z,100527.38
2023-10-09T06:52:44.593Z,100528.84
2023-10-09T06:57:50.874Z,100515.09
2023-10-09T07:02:56.327Z,100511.97
2023-10-09T07:08:20.132Z,100515.31
2023-10-09T07:13:26.676Z,100524.41
2023-10-09T07:18:50.922Z,100519.78
2023-10-09T07:23:59.313Z,100492.66
2023-10-09T07:29:17.827Z,100503.38
2023-10-09T07:34:45.057Z,100506.97
2023-10-09T07:39:58.996Z,100492.06
2023-10-09T07:45:23.571Z,100498.16
2023-10-09T07:50:40.135Z,100464.22
2023-10-09T07:56:08.315Z,100494.31
2023-10-09T08:01:18.405Z,100512.69
2023-10-09T08:07:04.860Z,100521.66
2023-10-09T08:12:36.881Z,100518.63
2023-10-09T08:17:40.716Z,100522.28
2023-10-09T08:22:45.092Z,100526.28
2023-10-09T08:27:56.133Z,100527.44
2023-10-09T08:38:12.462Z,100534.25
2023-10-09T08:43:20.844Z,100527.63
2023-10-09T08:48:28.769Z,100534.97
2023-10-09T08:53:35.008Z,100530.84
2023-10-09T08:58:40.176Z,100528.38
2023-10-09T09:03:45.603Z,100543.25
2023-10-09T09:08:49.875Z,100533.16
2023-10-09T09:14:08.367Z,100539.66
2023-10-09T09:19:12.578Z,100545.16
2023-10-09T09:24:23.105Z,100542.47
2023-10-09T09:29:39.224Z,100545.47
2023-10-09T09:34:51.492Z,100546.16
2023-10-09T09:40:02.754Z,100555.75
2023-10-09T09:45:13.168Z,100564.72
2023-10-09T09:50:26.512Z,100560.56
2023-10-09T09:55:43.894Z,100562.72
2023-10-09T10:00:55.057Z,100575.47
2023-10-09T10:05:59.802Z,100575.31
2023-10-09T10:11:06.894Z,100588.34
2023-10-09T10:16:22.150Z,100582.84
2023-10-09T10:21:34.962Z,100559.97
2023-10-09T10:26:39.262Z,100595.91
2023-10-09T10:31:58.298Z,100592.91
2023-10-09T10:37:02.392Z,100611.41
2023-10-09T10:42:07.657Z,100604.94
2023-10-09T10:47:26.918Z,100575.38
2023-10-09T10:52:46.859Z,100611.31
2023-10-09T10:58:03.964Z,100607.34
2023-10-09T11:03:19.954Z,100617.88
2023-10-09T11:08:34.789Z,100621.47
2023-10-09T11:13:54.388Z,100630.34
2023-10-09T11:18:59.421Z,100633.28
2023-10-09T11:24:23.155Z,100640.44
2023-10-09T11:29:45.675Z,100644.00
2023-10-09T11:35:11.262Z,100644.25
2023-10-09T11:40:52.094Z,100643.97
2023-10-09T11:46:13.330Z,100643.34
2023-10-09T11:51:23.843Z,100649.69
2023-10-09T11:56:30.560Z,100656.88
2023-10-09T12:01:37.597Z,100635.81
2023-10-09T12:06:44.279Z,100609.06
2023-10-09T12:12:04.303Z,100652.75
2023-10-09T12:17:11.918Z,100658.09
2023-10-09T12:22:18.086Z,100662.44
2023-10-09T12:27:24.897Z,100620.22
2023-10-09T12:32:29.277Z,100679.19
2023-10-09T12:37:33.285Z,100683.38
2023-10-09T12:42:37.890Z,100692.56
2023-10-09T12:47:44.222Z,100699.66
2023-10-09T12:52:52.479Z,100698.56
2023-10-09T12:57:56.820Z,100698.31
2023-10-09T13:03:15.759Z,100716.22
2023-10-09T13:08:23.066Z,100702.78
2023-10-09T13:13:48.782Z,100722.63
2023-10-09T13:18:54.483Z,100724.72
2023-10-09T13:23:59.666Z,100733.06
2023-10-09T13:29:05.727Z,100731.66
2023-10-09T13:34:12.305Z,100735.94
2023-10-09T13:39:28.631Z,100748.28
2023-10-09T13:44:38.208Z,100730.81
2023-10-09T13:49:43.927Z,100750.38
2023-10-09T13:54:55.501Z,100753.56
2023-10-09T14:00:01.932Z,100755.66
2023-10-09T14:05:10.375Z,100761.31
2023-10-09T14:10:20.255Z,100769.78
2023-10-09T14:15:25.052Z,100776.72
2023-10-09T14:20:33.534Z,100767.41
2023-10-09T14:25:41.917Z,100762.44
2023-10-09T14:30:51.178Z,100772.53
2023-10-09T14:35:56.892Z,100767.38
2023-10-09T14:41:01.849Z,100762.78
2023-10-09T14:46:12.537Z,100761.41
2023-10-09T14:51:17.210Z,100773.47
2023-10-09T14:56:30.580Z,100775.41
2023-10-09T15:01:34.787Z,100773.03
2023-10-09T15:06:40.185Z,100774.69
2023-10-09T15:11:44.190Z,100760.44
2023-10-09T15:16:50.009Z,100767.78
2023-10-09T15:21:54.147Z,100744.44
2023-10-09T15:27:01.750Z,100765.00
2023-10-09T15:32:16.548Z,100760.31
2023-10-09T15:37:21.598Z,100767.13
2023-10-09T15:42:25.894Z,100767.00
2023-10-09T15:47:29.884Z,100769.34
2023-10-09T15:52:34.103Z,100768.13
2023-10-09T15:57:38.405Z,100778.66
2023-10-09T16:02:43.871Z,100772.00
2023-10-09T16:07:48.309Z,100774.63
2023-10-09T16:12:55.509Z,100730.22
2023-10-09T16:18:04.932Z,100775.19
2023-10-09T16:23:11.668Z,100779.47
2023-10-09T16:28:17.591Z,100777.69
2023-10-09T16:33:22.268Z,100767.72
2023-10-09T16:38:27.309Z,100766.03
2023-10-09T16:43:32.198Z,100758.28
2023-10-09T16:48:41.846Z,100756.88
2023-10-09T16:53:46.111Z,100751.63
2023-10-09T16:58:54.106Z,100758.00
2023-10-09T17:03:59.945Z,100754.09
2023-10-09T17:09:08.698Z,100749.41
2023-10-09T17:14:17.687Z,100751.88
2023-10-09T17:19:22.206Z,100747.31
2023-10-09T17:24:26.278Z,100739.69
2023-10-09T17:29:30.217Z,100742.31
2023-10-09T17:34:35.944Z,100727.88
2023-10-09T17:39:40.473Z,100728.97
2023-10-09T17:44:44.417Z,100745.78
2023-10-09T17:49:48.856Z,100727.63
2023-10-09T17:54:54.198Z,100739.97
2023-10-09T17:59:58.181Z,100728.41
2023-10-09T18:05:02.868Z,100744.22
2023-10-09T18:10:08.142Z,100732.28
2023-10-09T18:15:15.174Z,100739.31
2023-10-09T18:20:22.660Z,100737.91
2023-10-09T18:25:27.637Z,100737.22
2023-10-09T18:30:33.309Z,100730.56
2023-10-09T18:35:39.936Z,100748.84
2023-10-09T18:40:48.902Z,100742.75
2023-10-09T18:45:53.094Z,100747.72
2023-10-09T18:51:00.212Z,100746.19
2023-10-09T18:56:07.530Z,100746.59
2023-10-09T19:01:17.291Z,100747.16
2023-10-09T19:06:25.648Z,100742.03
2023-10-09T19:11:31.714Z,100747.44
2023-10-09T19:16:35.973Z,100746.31
2023-10-09T19:21:41.699Z,100749.16
2023-10-09T19:26:45.896Z,100751.94
2023-10-09T19:31:52.736Z,100755.16
2023-10-09T19:36:57.175Z,100761.13
2023-10-09T19:42:01.239Z,100768.19
2023-10-09T19:47:07.571Z,100753.94
2023-10-09T19:52:11.468Z,100761.00
2023-10-09T19:57:15.481Z,100755.84
2023-10-09T20:02:19.565Z,100764.19
2023-10-09T20:07:23.452Z,100763.09
2023-10-09T20:12:27.980Z,100760.31
2023-10-09T20:17:33.139Z,100756.44
2023-10-09T20:22:39.520Z,100760.03
2023-10-09T20:27:46.305Z,100755.16
2023-10-09T20:32:50.215Z,100753.94
2023-10-09T20:38:03.324Z,100753.94
2023-10-09T20:43:07.277Z,100761.00
2023-10-09T20:48:11.168Z,100752.00
2023-10-09T20:53:15.741Z,100739.94
2023-10-09T20:58:19.754Z,100750.84
2023-10-09T21:03:24.644Z,100717.53
2023-10-09T21:08:28.873Z,100758.94
2023-10-09T21:13:33.440Z,100757.97
2023-10-09T21:18:37.535Z,100748.97
2023-10-09T21:23:43.518Z,100725.72
2023-10-09T21:28:52.346Z,100765.44
2023-10-09T21:33:58.892Z,100765.44
2023-10-09T21:39:02.715Z,100764.75
2023-10-09T21:44:09.388Z,100760.31
2023-10-09T21:49:13.661Z,100768.09
2023-10-09T21:54:18.346Z,100774.19
2023-10-09T21:59:22.207Z,100779.44
2023-10-09T22:04:27.706Z,100770.16
2023-10-09T22:09:31.624Z,100773.47
2023-10-09T22:14:38.543Z,100768.34
2023-10-09T22:19:43.845Z,100757.97
2023-10-09T22:24:50.709Z,100754.06
2023-10-09T22:29:57.456Z,100752.69
2023-10-09T22:35:02.418Z,100758.22
2023-10-09T22:40:22.783Z,100703.81
2023-10-09T22:45:33.962Z,100737.09
2023-10-09T22:50:38.140Z,100729.47
2023-10-09T23:02:01.474Z,100739.03
2023-10-09T23:07:16.344Z,100741.53
2023-10-09T23:12:25.699Z,100735.78
2023-10-09T23:17:49.620Z,100753.09
2023-10-09T23:22:54.518Z,100751.44
2023-10-09T23:28:18.912Z,100754.19
2023-10-09T23:33:22.768Z,100756.00
2023-10-09T23:38:29.926Z,100751.44
2023-10-09T23:43:36.512Z,100756.81
2023-10-09T23:48:41.314Z,100763.06
2023-10-09T23:53:48.490Z,100761.97
2023-10-09T23:58:53.731Z,100769.03
